Time;durP1;ratioP1;P1;durP2;ratioP2;P2;SDS_P1;SDS_P2;PMS_P1;PMS_P2;Temp;Humidity;BMP_temperature;BMP_pressure;BME280_temperature;BME280_humidity;BME280_pressure;Samples;Min_cycle;Max_cycle;Signal;HPM_P1;HPM_P2
2022/03/27 00:00:22;;;;;;;2.47;2.25;;;18.40;53.30;;;;;;5051552;28;20226;-72
2022/03/27 00:02:48;;;;;;;2.33;2.13;;;18.40;53.30;;;;;;5051334;28;20660;-69
2022/03/27 00:05:13;;;;;;;2.55;2.30;;;18.40;53.30;;;;;;5051642;28;20179;-69
2022/03/27 00:07:39;;;;;;;2.63;2.40;;;18.30;53.20;;;;;;5051943;28;20258;-68
2022/03/27 00:10:05;;;;;;;2.22;1.90;;;18.30;53.20;;;;;;5051130;28;20179;-68
2022/03/27 00:12:31;;;;;;;2.65;2.05;;;18.30;53.30;;;;;;5051587;28;20696;-71
2022/03/27 00:14:56;;;;;;;3.38;2.53;;;18.30;53.20;;;;;;5051450;28;20179;-71
2022/03/27 00:17:22;;;;;;;2.10;2.00;;;18.30;53.30;;;;;;5051708;28;20175;-72
2022/03/27 00:19:48;;;;;;;2.42;1.90;;;18.30;53.30;;;;;;5051601;28;20234;-71
2022/03/27 00:22:14;;;;;;;3.00;2.20;;;18.30;53.20;;;;;;5050902;28;20187;-71
2022/03/27 00:24:40;;;;;;;2.10;1.92;;;18.30;53.30;;;;;;5051687;28;20193;-70
2022/03/27 00:27:06;;;;;;;2.05;1.90;;;18.30;53.30;;;;;;5051753;28;20254;-70
2022/03/27 00:29:31;;;;;;;2.38;1.90;;;18.30;53.30;;;;;;5050782;28;20167;-70
2022/03/27 00:31:57;;;;;;;2.40;2.10;;;18.30;53.30;;;;;;5051765;28;20179;-69
2022/03/27 00:34:22;;;;;;;2.42;2.20;;;18.30;53.30;;;;;;5051522;28;20175;-71
2022/03/27 00:36:48;;;;;;;1.88;1.77;;;18.20;53.20;;;;;;5050884;28;20175;-69
2022/03/27 00:39:14;;;;;;;2.67;2.08;;;18.20;53.30;;;;;;5050298;28;20638;-69
2022/03/27 00:41:39;;;;;;;2.17;1.95;;;18.20;53.30;;;;;;5051583;28;20187;-70
2022/03/27 00:44:05;;;;;;;3.55;2.20;;;18.20;53.30;;;;;;5051027;28;20181;-70
2022/03/27 00:46:31;;;;;;;2.38;2.17;;;18.20;53.30;;;;;;5051660;28;20171;-70
2022/03/27 00:48:57;;;;;;;2.10;1.90;;;18.20;53.30;;;;;;5051370;28;20201;-69
2022/03/27 00:51:22;;;;;;;3.95;2.25;;;18.20;53.30;;;;;;5050462;28;20686;-70
2022/03/27 00:53:48;;;;;;;2.13;1.92;;;18.20;53.30;;;;;;5051462;28;20286;-69
2022/03/27 00:56:14;;;;;;;3.30;1.98;;;18.20;53.30;;;;;;5051063;28;20252;-70
2022/03/27 00:58:39;;;;;;;2.17;1.95;;;18.20;53.40;;;;;;5050451;28;20572;-70
2022/03/27 01:01:19;;;;;;;2.08;1.88;;;18.20;53.20;;;;;;5051255;28;20214;-69
2022/03/27 01:03:47;;;;;;;2.42;2.03;;;18.20;53.30;;;;;;5051440;28;20642;-69
2022/03/27 01:06:25;;;;;;;2.20;2.00;;;18.20;53.30;;;;;;5050314;28;20254;-69
2022/03/27 01:11:36;;;;;;;1.85;1.75;;;18.20;53.40;;;;;;5050849;28;20225;-70
2022/03/27 01:14:01;;;;;;;2.35;1.83;;;18.20;53.30;;;;;;5051474;28;20176;-69
2022/03/27 01:16:41;;;;;;;2.40;2.20;;;18.20;53.30;;;;;;5051068;28;20183;-72
2022/03/27 01:19:09;;;;;;;2.00;1.90;;;18.10;53.20;;;;;;5049074;28;20179;-71
2022/03/27 01:21:43;;;;;;;2.20;1.90;;;18.10;53.30;;;;;;5050322;28;20195;-70
2022/03/27 01:24:09;;;;;;;1.88;1.77;;;18.10;53.20;;;;;;5051085;28;20206;-71
2022/03/27 01:26:34;;;;;;;2.17;1.98;;;18.10;53.20;;;;;;5050609;28;20171;-70
2022/03/27 01:29:00;;;;;;;1.67;1.58;;;18.10;53.30;;;;;;5051251;28;20313;-69
2022/03/27 01:31:26;;;;;;;1.90;1.80;;;18.10;53.20;;;;;;5050920;28;20183;-70
2022/03/27 01:34:00;;;;;;;1.80;1.70;;;18.10;53.30;;;;;;5050722;28;20179;-68
2022/03/27 01:36:34;;;;;;;1.90;1.80;;;18.10;53.20;;;;;;5050903;28;20174;-70
2022/03/27 01:39:00;;;;;;;2.00;1.80;;;18.10;53.20;;;;;;5051286;28;20621;-69
2022/03/27 01:41:25;;;;;;;1.92;1.83;;;18.10;53.20;;;;;;5050076;28;20199;-70
2022/03/27 01:43:51;;;;;;;1.77;1.67;;;18.10;53.30;;;;;;5051097;28;20167;-70
2022/03/27 01:46:16;;;;;;;2.05;1.85;;;18.10;53.30;;;;;;5050093;28;20175;-71
2022/03/27 01:48:42;;;;;;;1.70;1.60;;;18.10;53.30;;;;;;5051686;28;20270;-69
2022/03/27 01:51:08;;;;;;;1.80;1.70;;;18.10;53.30;;;;;;5053201;28;20287;-69
2022/03/27 01:53:36;;;;;;;1.60;1.50;;;18.10;53.30;;;;;;5054133;28;20183;-69
2022/03/27 01:56:02;;;;;;;1.60;1.50;;;18.10;54.00;;;;;;5054701;28;20257;-70
2022/03/27 01:58:27;;;;;;;1.88;1.77;;;18.10;53.40;;;;;;5053895;28;20613;-72
2022/03/27 02:00:53;;;;;;;2.13;1.92;;;18.00;53.30;;;;;;5053825;28;20232;-70
2022/03/27 02:03:19;;;;;;;1.83;1.73;;;18.00;53.30;;;;;;5054321;28;20681;-70
2022/03/27 02:05:44;;;;;;;2.08;1.77;;;18.00;53.30;;;;;;5055026;28;20283;-69
2022/03/27 02:08:11;;;;;;;1.77;1.55;;;18.00;53.30;;;;;;5053195;28;20205;-68
2022/03/27 02:10:37;;;;;;;1.85;1.73;;;18.00;53.30;;;;;;5054358;28;20193;-70
2022/03/27 02:13:03;;;;;;;1.95;1.50;;;18.00;53.30;;;;;;5054296;28;20545;-71
2022/03/27 02:15:29;;;;;;;1.80;1.70;;;18.00;53.30;;;;;;5053029;28;20178;-71
2022/03/27 02:17:55;;;;;;;3.22;1.88;;;18.00;53.30;;;;;;5054368;28;20175;-71
2022/03/27 02:20:21;;;;;;;1.60;1.50;;;18.00;53.30;;;;;;5053953;28;20211;-73
2022/03/27 02:22:46;;;;;;;3.10;1.90;;;18.00;53.30;;;;;;5053515;28;20186;-71
2022/03/27 02:25:12;;;;;;;1.88;1.77;;;18.00;53.40;;;;;;5053852;28;20265;-71
2022/03/27 02:27:37;;;;;;;1.70;1.60;;;18.00;53.30;;;;;;5053953;28;20266;-70
2022/03/27 02:30:03;;;;;;;2.60;1.70;;;18.00;53.40;;;;;;5053155;28;20607;-71
2022/03/27 02:32:29;;;;;;;2.42;1.88;;;18.00;53.40;;;;;;5053706;28;20178;-70
2022/03/27 02:34:54;;;;;;;1.58;1.48;;;18.00;53.40;;;;;;5053974;28;20262;-70
2022/03/27 02:37:20;;;;;;;1.85;1.75;;;18.00;53.40;;;;;;5052728;28;20175;-70
2022/03/27 02:39:45;;;;;;;1.80;1.70;;;18.00;53.40;;;;;;5053638;28;20566;-70
2022/03/27 02:42:11;;;;;;;1.70;1.60;;;17.90;53.40;;;;;;5053268;28;20182;-71
2022/03/27 02:44:36;;;;;;;2.00;1.75;;;17.90;53.40;;;;;;5052685;28;20216;-70
2022/03/27 02:47:02;;;;;;;1.80;1.70;;;17.90;53.40;;;;;;5053663;28;20171;-70
2022/03/27 02:49:28;;;;;;;1.52;1.42;;;17.90;53.30;;;;;;5053257;28;20209;-69
2022/03/27 02:51:53;;;;;;;1.73;1.63;;;17.90;53.40;;;;;;5052765;28;20175;-69
2022/03/27 02:54:19;;;;;;;2.00;1.83;;;17.90;53.40;;;;;;5052929;28;20548;-70
2022/03/27 02:56:46;;;;;;;2.13;1.92;;;17.90;53.40;;;;;;5052645;28;20183;-70
2022/03/27 02:59:11;;;;;;;1.70;1.50;;;17.90;53.40;;;;;;5052692;28;20230;-71
2022/03/27 03:01:37;;;;;;;2.05;1.85;;;17.90;53.40;;;;;;5052571;28;20703;-70
2022/03/27 03:04:04;;;;;;;2.08;1.67;;;17.90;53.30;;;;;;5052461;28;20186;-69
2022/03/27 03:06:31;;;;;;;2.55;2.30;;;17.90;53.40;;;;;;5053022;28;20179;-70
2022/03/27 03:08:57;;;;;;;2.13;1.92;;;17.80;53.30;;;;;;5052070;28;20197;-70
2022/03/27 03:11:22;;;;;;;1.50;1.40;;;17.90;53.40;;;;;;5052024;28;20515;-70
2022/03/27 03:13:49;;;;;;;2.20;2.08;;;17.90;53.40;;;;;;5053034;28;20290;-70
2022/03/27 03:16:15;;;;;;;2.15;1.95;;;17.80;53.40;;;;;;5052698;28;20256;-72
2022/03/27 03:18:44;;;;;;;2.20;2.00;;;17.90;53.40;;;;;;5052146;28;20646;-71
2022/03/27 03:21:09;;;;;;;2.75;2.15;;;17.80;53.30;;;;;;5052528;28;20599;-71
2022/03/27 03:23:36;;;;;;;2.22;2.13;;;17.90;53.40;;;;;;5052681;28;20244;-70
2022/03/27 03:26:01;;;;;;;2.42;2.25;;;17.80;53.40;;;;;;5052000;28;20518;-70
2022/03/27 03:28:27;;;;;;;2.13;2.03;;;17.80;53.30;;;;;;5052643;28;20197;-71
2022/03/27 03:30:52;;;;;;;2.65;2.30;;;17.80;53.30;;;;;;5052518;28;20179;-69
2022/03/27 03:33:19;;;;;;;2.53;2.33;;;17.80;53.40;;;;;;5051672;28;20199;-70
2022/03/27 03:35:45;;;;;;;2.00;1.90;;;17.80;53.40;;;;;;5052745;28;20232;-70
2022/03/27 03:38:10;;;;;;;2.63;2.42;;;17.80;53.30;;;;;;5052149;28;20584;-70
2022/03/27 03:40:37;;;;;;;2.70;2.50;;;17.80;53.30;;;;;;5051735;28;20736;-70
2022/03/27 03:43:03;;;;;;;2.47;2.28;;;17.80;53.30;;;;;;5052705;28;20187;-70
2022/03/27 03:45:28;;;;;;;2.50;2.30;;;17.80;53.40;;;;;;5052052;28;20179;-70
2022/03/27 03:47:54;;;;;;;2.90;2.50;;;17.80;53.40;;;;;;5051667;28;20270;-70
2022/03/27 03:50:20;;;;;;;2.85;2.65;;;17.80;53.40;;;;;;5052133;28;20187;-69
2022/03/27 03:52:45;;;;;;;2.65;2.45;;;17.70;53.30;;;;;;5052052;28;20247;-70
2022/03/27 03:55:11;;;;;;;2.85;2.38;;;17.80;53.30;;;;;;5051199;28;20207;-71
2022/03/27 03:57:36;;;;;;;2.92;2.72;;;17.80;53.40;;;;;;5052243;28;20205;-70
2022/03/27 04:00:02;;;;;;;2.45;2.25;;;17.70;53.30;;;;;;5051143;28;20712;-70
2022/03/27 04:02:34;;;;;;;3.15;2.30;;;17.70;53.30;;;;;;5052101;28;20191;-72
2022/03/27 04:05:01;;;;;;;2.78;2.58;;;17.70;53.30;;;;;;5052344;28;20265;-70
2022/03/27 04:07:27;;;;;;;3.03;2.72;;;17.70;53.30;;;;;;5051038;28;20207;-70
2022/03/27 04:09:53;;;;;;;2.65;2.45;;;17.70;53.40;;;;;;5051923;28;20548;-69
2022/03/27 04:12:19;;;;;;;2.40;2.20;;;17.70;53.30;;;;;;5051610;28;20685;-71
2022/03/27 04:14:44;;;;;;;3.33;3.03;;;17.70;53.30;;;;;;5049925;28;20546;-71
2022/03/27 04:17:10;;;;;;;2.67;2.47;;;17.70;53.30;;;;;;5051625;28;20171;-73
2022/03/27 04:19:35;;;;;;;3.22;2.70;;;17.70;53.40;;;;;;5051779;28;20199;-70
2022/03/27 04:22:01;;;;;;;2.58;2.38;;;17.70;53.30;;;;;;5051164;28;20179;-71
2022/03/27 04:24:27;;;;;;;2.42;2.22;;;17.70;53.30;;;;;;5051402;28;20195;-72
2022/03/27 04:26:53;;;;;;;2.50;2.30;;;17.70;53.40;;;;;;5051662;28;20529;-70
2022/03/27 04:29:18;;;;;;;3.42;2.67;;;17.70;53.40;;;;;;5050887;28;20167;-72
2022/03/27 04:31:44;;;;;;;3.10;2.35;;;17.70;53.40;;;;;;5051670;28;20174;-70
2022/03/27 04:34:09;;;;;;;2.70;2.50;;;17.60;53.30;;;;;;5051341;28;20211;-70
2022/03/27 04:36:37;;;;;;;3.03;2.72;;;17.60;53.30;;;;;;5051028;28;20269;-70
2022/03/27 04:39:03;;;;;;;2.80;2.60;;;17.60;53.30;;;;;;5051514;28;20180;-69
2022/03/27 04:41:28;;;;;;;3.03;2.75;;;17.60;53.30;;;;;;5051301;28;20214;-72
2022/03/27 04:43:54;;;;;;;2.80;2.60;;;17.60;53.30;;;;;;5050938;28;20228;-71
2022/03/27 04:46:19;;;;;;;3.05;2.85;;;17.60;53.30;;;;;;5051279;28;20270;-70
2022/03/27 04:48:45;;;;;;;3.15;2.70;;;17.60;53.30;;;;;;5051587;28;20182;-70
2022/03/27 04:51:11;;;;;;;2.45;2.25;;;17.60;53.30;;;;;;5050561;28;20175;-69
2022/03/27 04:53:37;;;;;;;2.60;2.40;;;17.60;53.30;;;;;;5051390;28;20194;-70
2022/03/27 04:56:02;;;;;;;2.95;2.75;;;17.60;53.30;;;;;;5051640;28;20175;-70
2022/03/27 04:58:28;;;;;;;3.05;2.83;;;17.60;53.30;;;;;;5050302;28;20218;-72
2022/03/27 05:00:53;;;;;;;3.00;2.63;;;17.60;53.30;;;;;;5051408;28;20226;-70
2022/03/27 05:03:19;;;;;;;2.80;2.60;;;17.60;53.30;;;;;;5050513;28;20187;-70
2022/03/27 05:05:45;;;;;;;2.72;2.53;;;17.60;53.30;;;;;;5051493;28;20183;-70
2022/03/27 05:08:10;;;;;;;2.58;2.38;;;17.60;53.30;;;;;;5051093;28;20652;-69
2022/03/27 05:10:36;;;;;;;2.80;2.60;;;17.60;53.30;;;;;;5050961;28;20175;-70
2022/03/27 05:13:04;;;;;;;2.60;2.40;;;17.60;53.30;;;;;;5051435;28;20575;-71
2022/03/27 05:15:29;;;;;;;2.33;2.13;;;17.60;53.30;;;;;;5051109;28;20179;-72
2022/03/27 05:17:58;;;;;;;2.83;2.63;;;17.50;53.20;;;;;;5051204;28;20174;-71
2022/03/27 05:20:24;;;;;;;2.60;2.40;;;17.60;53.30;;;;;;5051048;28;20307;-72
2022/03/27 05:22:49;;;;;;;2.70;2.45;;;17.50;53.20;;;;;;5050218;28;20190;-70
2022/03/27 05:25:15;;;;;;;2.47;2.28;;;17.50;53.20;;;;;;5051490;28;20175;-70
2022/03/27 05:27:51;;;;;;;2.78;2.58;;;17.50;53.20;;;;;;5055325;28;20274;-70
2022/03/27 05:30:17;;;;;;;2.58;2.38;;;17.50;53.20;;;;;;5054712;28;20634;-71
2022/03/27 05:32:43;;;;;;;2.53;2.33;;;17.50;53.10;;;;;;5054291;28;20274;-70
2022/03/27 05:35:09;;;;;;;3.28;2.85;;;17.50;53.20;;;;;;5054657;28;20171;-69
2022/03/27 05:37:36;;;;;;;2.90;2.70;;;17.50;53.10;;;;;;5054749;28;20190;-71
2022/03/27 05:40:03;;;;;;;2.95;2.65;;;17.50;53.10;;;;;;5054969;28;20228;-71
2022/03/27 05:42:29;;;;;;;2.72;2.53;;;17.50;53.10;;;;;;5054710;28;20175;-72
2022/03/27 05:44:54;;;;;;;2.65;2.45;;;17.50;53.10;;;;;;5054792;28;20660;-70
2022/03/27 05:47:20;;;;;;;2.70;2.50;;;17.50;53.10;;;;;;5053858;28;20226;-70
2022/03/27 05:49:47;;;;;;;3.20;2.90;;;17.50;53.10;;;;;;5054744;28;20194;-70
2022/03/27 05:52:16;;;;;;;2.92;2.63;;;17.50;53.10;;;;;;5054121;28;20179;-70
2022/03/27 05:54:42;;;;;;;3.05;2.80;;;17.50;53.10;;;;;;5053905;28;20236;-72
2022/03/27 05:57:08;;;;;;;2.67;2.47;;;17.40;53.00;;;;;;5054255;28;20258;-72
2022/03/27 05:59:33;;;;;;;3.00;2.50;;;17.50;53.10;;;;;;5053464;28;20223;-71
2022/03/27 06:01:59;;;;;;;2.85;2.65;;;17.40;53.00;;;;;;5054531;28;20182;-72
2022/03/27 06:04:24;;;;;;;2.53;2.33;;;17.40;53.00;;;;;;5054211;28;20193;-71
2022/03/27 06:06:50;;;;;;;2.92;2.65;;;17.40;53.00;;;;;;5053867;28;20202;-71
2022/03/27 06:09:15;;;;;;;2.45;2.25;;;17.40;53.00;;;;;;5054260;28;20195;-71
2022/03/27 06:11:41;;;;;;;3.58;3.28;;;17.40;53.00;;;;;;5054402;28;20202;-72
2022/03/27 06:14:06;;;;;;;2.25;2.15;;;17.40;53.00;;;;;;5053290;28;20187;-71
2022/03/27 06:16:32;;;;;;;2.72;2.53;;;17.40;53.00;;;;;;5054287;28;20541;-72
2022/03/27 06:18:58;;;;;;;2.50;2.30;;;17.40;53.00;;;;;;5054110;28;20175;-72
2022/03/27 06:21:23;;;;;;;2.40;2.20;;;17.40;53.00;;;;;;5053253;28;20226;-72
2022/03/27 06:23:49;;;;;;;2.53;2.33;;;17.40;53.00;;;;;;5054301;28;20171;-70
2022/03/27 06:26:14;;;;;;;2.42;2.17;;;17.40;53.00;;;;;;5053745;28;20224;-71
2022/03/27 06:28:40;;;;;;;2.60;2.40;;;17.40;52.90;;;;;;5053321;28;20526;-72
2022/03/27 06:31:09;;;;;;;3.10;2.83;;;17.40;53.00;;;;;;5053712;28;20236;-69
2022/03/27 06:33:35;;;;;;;2.80;2.53;;;17.40;52.90;;;;;;5053850;28;20193;-70
2022/03/27 06:36:01;;;;;;;2.80;2.60;;;17.50;52.90;;;;;;5052871;28;20175;-69
2022/03/27 06:38:28;;;;;;;2.70;2.50;;;17.50;52.70;;;;;;5052956;28;20171;-72
2022/03/27 06:40:55;;;;;;;2.67;2.47;;;17.50;52.70;;;;;;5053810;28;20211;-70
2022/03/27 06:43:21;;;;;;;2.60;2.40;;;17.50;52.80;;;;;;5052606;28;20598;-72
2022/03/27 06:45:46;;;;;;;3.10;2.80;;;17.50;52.60;;;;;;5053557;28;20209;-70
2022/03/27 06:48:12;;;;;;;2.53;2.33;;;17.50;52.60;;;;;;5053194;28;20163;-70
2022/03/27 06:50:37;;;;;;;2.88;2.55;;;17.50;52.70;;;;;;5051590;28;20171;-71
2022/03/27 06:53:03;;;;;;;2.92;2.63;;;17.50;52.80;;;;;;5053688;28;20241;-71
2022/03/27 06:55:29;;;;;;;2.50;2.30;;;17.50;52.80;;;;;;5053167;28;20182;-72
2022/03/27 06:57:55;;;;;;;2.72;2.50;;;17.50;52.80;;;;;;5052793;28;20226;-72
2022/03/27 07:03:06;;;;;;;3.53;2.90;;;17.50;52.10;;;;;;5052537;28;20600;-72
2022/03/27 07:05:41;;;;;;;3.10;2.83;;;17.60;52.00;;;;;;5053071;28;20696;-71
2022/03/27 07:08:07;;;;;;;3.47;3.17;;;17.60;51.90;;;;;;5052937;28;20699;-75
2022/03/27 07:10:33;;;;;;;3.40;2.85;;;17.60;52.00;;;;;;5052412;28;20214;-74
2022/03/27 07:12:58;;;;;;;4.05;3.20;;;17.70;51.90;;;;;;5053058;28;20674;-71
2022/03/27 07:15:24;;;;;;;3.75;3.08;;;17.70;51.80;;;;;;5052594;28;20597;-74
2022/03/27 07:17:51;;;;;;;3.10;2.75;;;17.70;51.60;;;;;;5052193;28;20174;-73
2022/03/27 07:20:20;;;;;;;3.40;3.10;;;17.80;51.80;;;;;;5052233;28;20211;-73
2022/03/27 07:22:46;;;;;;;4.47;2.80;;;17.80;52.40;;;;;;5052862;28;20201;-72
2022/03/27 07:25:11;;;;;;;2.90;2.60;;;17.80;52.20;;;;;;5051673;28;20716;-72
2022/03/27 07:27:40;;;;;;;3.58;3.05;;;17.80;52.10;;;;;;5052656;28;20278;-72
2022/03/27 07:30:06;;;;;;;5.07;3.00;;;17.80;52.20;;;;;;5052673;28;20171;-73
2022/03/27 07:32:32;;;;;;;3.78;2.70;;;17.80;52.10;;;;;;5052010;28;20637;-70
2022/03/27 07:35:00;;;;;;;3.97;2.85;;;17.90;52.00;;;;;;5052950;28;20198;-72
2022/03/27 07:37:27;;;;;;;6.97;3.30;;;18.00;51.90;;;;;;5052286;28;20549;-73
2022/03/27 07:39:53;;;;;;;5.75;3.30;;;18.10;51.90;;;;;;5051764;28;20290;-73
2022/03/27 07:42:18;;;;;;;6.13;3.40;;;18.10;51.80;;;;;;5052233;28;20276;-72
2022/03/27 07:44:44;;;;;;;4.57;3.10;;;18.20;51.90;;;;;;5052705;28;20232;-71
2022/03/27 07:47:09;;;;;;;3.38;3.00;;;18.20;51.90;;;;;;5051738;28;20178;-71
2022/03/27 07:49:35;;;;;;;3.92;2.83;;;18.20;51.90;;;;;;5052034;28;20171;-70
2022/03/27 07:52:06;;;;;;;4.18;2.88;;;18.20;51.90;;;;;;5052015;28;20467;-70
2022/03/27 07:54:32;;;;;;;4.85;3.15;;;18.30;52.00;;;;;;5052290;28;20229;-71
2022/03/27 07:56:57;;;;;;;4.25;3.08;;;18.30;52.00;;;;;;5052074;28;20595;-70
2022/03/27 07:59:23;;;;;;;5.20;3.10;;;18.30;52.10;;;;;;5050904;28;20763;-71
2022/03/27 08:01:48;;;;;;;3.05;2.75;;;18.30;52.10;;;;;;5052001;28;20179;-69
2022/03/27 08:04:14;;;;;;;4.20;3.47;;;18.40;52.20;;;;;;5051491;28;20187;-71
2022/03/27 08:06:40;;;;;;;4.93;3.60;;;18.30;52.20;;;;;;5051406;28;20179;-70
2022/03/27 08:09:06;;;;;;;3.53;3.22;;;18.40;52.30;;;;;;5052148;28;20607;-73
2022/03/27 08:11:32;;;;;;;4.78;3.13;;;18.40;52.40;;;;;;5052062;28;20182;-70
2022/03/27 08:13:57;;;;;;;3.75;3.38;;;18.30;52.40;;;;;;5051668;28;20170;-73
2022/03/27 08:16:23;;;;;;;4.68;3.50;;;18.40;52.50;;;;;;5051601;28;20699;-71
2022/03/27 08:18:48;;;;;;;5.38;3.35;;;18.40;52.50;;;;;;5051644;28;20201;-73
2022/03/27 08:21:14;;;;;;;5.75;4.05;;;18.40;52.60;;;;;;5050881;28;20222;-72
2022/03/27 08:23:39;;;;;;;4.10;3.60;;;18.40;52.70;;;;;;5051872;28;20186;-72
2022/03/27 08:28:49;;;;;;;5.88;3.50;;;18.40;52.60;;;;;;5051052;28;20488;-71
2022/03/27 08:31:15;;;;;;;4.97;3.40;;;18.50;52.70;;;;;;5051632;28;20175;-72
2022/03/27 08:33:44;;;;;;;3.92;3.08;;;18.50;52.60;;;;;;5051715;28;20183;-73
2022/03/27 08:36:10;;;;;;;6.38;3.20;;;18.50;52.60;;;;;;5050749;28;20198;-73
2022/03/27 08:38:35;;;;;;;5.43;2.65;;;18.50;52.60;;;;;;5051543;28;20159;-73
2022/03/27 08:41:04;;;;;;;4.45;3.88;;;18.60;52.60;;;;;;5051544;28;20215;-71
2022/03/27 08:43:31;;;;;;;6.78;3.58;;;18.60;52.60;;;;;;5049459;28;20209;-72
2022/03/27 08:46:04;;;;;;;5.95;3.65;;;18.60;52.50;;;;;;5051700;28;20660;-71
2022/03/27 08:48:39;;;;;;;5.18;3.40;;;18.60;52.50;;;;;;5050754;28;20191;-72
2022/03/27 08:51:34;;;;;;;5.43;3.30;;;18.60;52.50;;;;;;5050168;28;20178;-70
2022/03/27 08:54:08;;;;;;;5.07;3.28;;;18.70;52.50;;;;;;5051763;28;20175;-71
2022/03/27 08:56:45;;;;;;;6.60;3.47;;;18.70;52.50;;;;;;5051178;28;20191;-73
2022/03/27 08:59:11;;;;;;;5.03;3.40;;;18.70;52.50;;;;;;5049829;28;20230;-74
2022/03/27 09:01:38;;;;;;;6.80;2.90;;;18.70;52.40;;;;;;5054779;28;20328;-72
2022/03/27 09:04:04;;;;;;;5.38;3.20;;;18.70;52.50;;;;;;5054484;28;20626;-67
2022/03/27 09:06:30;;;;;;;5.45;3.50;;;18.70;52.30;;;;;;5055113;28;20640;-72
2022/03/27 09:08:55;;;;;;;6.13;3.45;;;18.70;52.40;;;;;;5055507;28;20209;-72
2022/03/27 09:11:21;;;;;;;4.38;3.80;;;18.80;52.50;;;;;;5053913;28;20171;-75
2022/03/27 09:13:48;;;;;;;4.57;3.40;;;18.80;52.50;;;;;;5055419;28;20274;-75
2022/03/27 09:16:13;;;;;;;4.82;3.30;;;18.80;52.50;;;;;;5054947;28;20198;-76
2022/03/27 09:18:50;;;;;;;5.00;3.47;;;18.80;52.50;;;;;;5054720;28;20171;-73
2022/03/27 09:21:20;;;;;;;3.80;3.42;;;18.80;52.60;;;;;;5054877;28;20689;-76
2022/03/27 09:23:54;;;;;;;5.90;3.67;;;18.80;52.60;;;;;;5054589;28;20277;-73
2022/03/27 09:26:20;;;;;;;4.47;3.35;;;18.80;52.70;;;;;;5054950;28;20596;-76
2022/03/27 09:28:53;;;;;;;3.90;3.45;;;18.80;52.60;;;;;;5055103;28;20575;-72
2022/03/27 09:31:19;;;;;;;5.35;3.63;;;18.90;52.60;;;;;;5054218;28;20180;-72
2022/03/27 09:33:59;;;;;;;3.58;3.28;;;18.80;52.50;;;;;;5055211;28;20167;-72
2022/03/27 09:36:42;;;;;;;3.58;3.25;;;18.80;52.60;;;;;;5054767;28;20175;-72
2022/03/27 09:39:13;;;;;;;5.22;3.22;;;18.80;52.50;;;;;;5053797;28;20622;-71
2022/03/27 09:41:39;;;;;;;4.18;3.17;;;18.80;52.50;;;;;;5054856;28;20658;-72
2022/03/27 09:44:07;;;;;;;4.25;3.13;;;18.90;52.60;;;;;;5054886;28;20202;-71
2022/03/27 09:46:57;;;;;;;4.50;3.45;;;18.90;52.50;;;;;;5054289;28;20183;-72
2022/03/27 09:49:35;;;;;;;4.38;3.17;;;18.90;52.50;;;;;;5054462;28;20171;-74
2022/03/27 09:52:04;;;;;;;6.15;3.38;;;18.90;52.60;;;;;;5054076;28;20261;-71
2022/03/27 09:54:43;;;;;;;3.63;3.25;;;19.00;52.60;;;;;;5054690;28;20284;-77
2022/03/27 09:57:26;;;;;;;3.58;3.05;;;19.00;52.50;;;;;;5053210;28;20590;-71
2022/03/27 09:59:52;;;;;;;4.13;3.33;;;19.00;52.40;;;;;;5053518;28;20231;-71
2022/03/27 10:02:19;;;;;;;6.55;3.15;;;19.00;52.40;;;;;;5054534;28;20182;-73
2022/03/27 10:04:52;;;;;;;3.60;3.30;;;19.10;52.50;;;;;;5054714;28;20175;-71
2022/03/27 10:07:18;;;;;;;3.97;2.90;;;19.00;52.40;;;;;;5053568;28;20230;-73
2022/03/27 10:09:44;;;;;;;3.50;3.20;;;19.10;52.50;;;;;;5054625;28;20217;-74
2022/03/27 10:12:09;;;;;;;3.65;3.08;;;19.10;52.40;;;;;;5053646;28;20215;-75
2022/03/27 10:14:35;;;;;;;3.55;2.97;;;19.10;52.40;;;;;;5052361;28;21330;-75
2022/03/27 10:17:01;;;;;;;3.40;3.10;;;19.10;52.30;;;;;;5053265;28;20206;-74
2022/03/27 10:19:34;;;;;;;3.60;3.17;;;19.10;52.40;;;;;;5052859;28;20257;-73
2022/03/27 10:22:01;;;;;;;7.65;3.65;;;19.20;52.30;;;;;;5052069;28;20206;-68
2022/03/27 10:24:30;;;;;;;5.68;3.72;;;19.20;52.40;;;;;;5053379;28;20714;-68
2022/03/27 10:27:04;;;;;;;4.25;2.90;;;19.20;52.40;;;;;;5053070;28;20269;-75
2022/03/27 10:29:30;;;;;;;5.03;3.75;;;19.20;52.60;;;;;;5052298;28;20167;-70
2022/03/27 10:32:00;;;;;;;7.38;3.33;;;19.20;52.20;;;;;;5053512;28;20182;-70
2022/03/27 10:34:25;;;;;;;5.63;3.22;;;19.50;52.40;;;;;;5052627;28;20198;-77
2022/03/27 10:37:25;;;;;;;5.78;3.15;;;19.30;52.40;;;;;;5052422;28;20179;-76
2022/03/27 10:39:55;;;;;;;8.70;3.58;;;19.30;52.20;;;;;;5034410;28;20223;-75
2022/03/27 10:42:37;;;;;;;7.57;3.17;;;19.30;52.30;;;;;;5032897;28;20250;-74
2022/03/27 10:45:03;;;;;;;8.70;3.30;;;19.30;52.40;;;;;;5053555;28;20191;-72
2022/03/27 10:47:29;;;;;;;6.75;3.38;;;19.30;52.40;;;;;;5053284;28;20228;-74
2022/03/27 10:50:01;;;;;;;10.07;3.15;;;19.40;52.30;;;;;;5052978;28;20183;-77
2022/03/27 10:52:30;;;;;;;7.72;3.03;;;19.30;52.30;;;;;;5053358;28;20182;-74
2022/03/27 10:55:01;;;;;;;8.35;3.90;;;19.40;52.50;;;;;;5052212;28;20405;-71
2022/03/27 10:57:34;;;;;;;12.27;3.67;;;19.40;51.50;;;;;;5053129;28;20179;-70
2022/03/27 11:00:00;;;;;;;12.70;3.28;;;19.40;52.10;;;;;;5053062;28;20235;-71
2022/03/27 11:02:46;;;;;;;6.50;2.67;;;19.40;52.10;;;;;;5050967;28;20190;-72
2022/03/27 11:05:34;;;;;;;6.68;3.05;;;19.50;52.30;;;;;;5052864;28;20191;-70
2022/03/27 11:08:18;;;;;;;5.30;2.85;;;19.50;52.10;;;;;;5053317;28;20279;-72
2022/03/27 11:10:50;;;;;;;5.00;2.60;;;19.60;52.20;;;;;;5052388;28;20225;-74
2022/03/27 11:13:30;;;;;;;6.93;2.75;;;19.60;52.20;;;;;;5052984;28;20175;-73
2022/03/27 11:16:07;;;;;;;3.90;2.97;;;19.60;52.20;;;;;;5053002;28;20182;-72
2022/03/27 11:18:41;;;;;;;5.03;3.00;;;19.60;52.30;;;;;;5053132;28;20206;-70
2022/03/27 11:21:07;;;;;;;5.82;2.95;;;19.60;52.30;;;;;;5052461;28;20211;-70
2022/03/27 11:23:36;;;;;;;4.15;2.80;;;19.60;52.40;;;;;;5051617;28;20175;-76
2022/03/27 11:26:02;;;;;;;5.65;2.95;;;19.60;52.40;;;;;;5052877;28;20186;-78
2022/03/27 11:28:48;;;;;;;8.23;3.25;;;19.70;52.40;;;;;;5052104;28;20534;-75
2022/03/27 11:31:14;;;;;;;4.35;2.83;;;19.70;52.30;;;;;;5049816;28;20175;-77
2022/03/27 11:33:39;;;;;;;12.52;3.65;;;19.60;52.30;;;;;;5052199;28;20180;-75
2022/03/27 11:36:08;;;;;;;6.82;2.97;;;19.60;51.70;;;;;;5052584;28;20260;-76
2022/03/27 11:38:58;;;;;;;6.70;2.70;;;19.60;52.20;;;;;;5051828;28;20633;-78
2022/03/27 11:41:34;;;;;;;10.13;3.47;;;19.70;52.10;;;;;;5048488;28;20239;-77
2022/03/27 11:47:16;;;;;;;6.93;2.95;;;19.70;52.20;;;;;;5052265;28;20179;-75
2022/03/27 11:49:42;;;;;;;5.40;3.20;;;19.70;52.10;;;;;;5052379;28;20630;-75
2022/03/27 11:52:12;;;;;;;7.72;3.10;;;19.70;52.20;;;;;;5051493;28;20227;-74
2022/03/27 11:54:38;;;;;;;6.22;3.00;;;19.70;52.10;;;;;;5052447;28;20183;-76
2022/03/27 11:57:04;;;;;;;4.32;2.65;;;19.80;52.10;;;;;;5052619;28;20182;-77
2022/03/27 11:59:31;;;;;;;5.65;2.70;;;19.80;52.10;;;;;;5051332;28;20218;-76
2022/03/27 12:02:00;;;;;;;4.57;3.10;;;19.80;52.10;;;;;;5052328;28;20269;-76
2022/03/27 12:04:26;;;;;;;4.05;2.50;;;19.80;52.00;;;;;;5051911;28;20187;-77
2022/03/27 12:07:00;;;;;;;5.38;2.72;;;19.80;52.10;;;;;;5051519;28;20578;-76
2022/03/27 12:09:27;;;;;;;5.47;3.03;;;20.00;52.20;;;;;;5051862;28;20179;-76
2022/03/27 12:12:12;;;;;;;4.40;2.78;;;19.90;52.10;;;;;;5051952;28;20665;-77
2022/03/27 12:14:51;;;;;;;5.30;2.97;;;19.90;52.00;;;;;;5051472;28;20657;-68
2022/03/27 12:17:17;;;;;;;4.97;2.53;;;19.90;51.90;;;;;;5051610;28;20186;-69
2022/03/27 12:20:02;;;;;;;4.32;2.42;;;19.90;51.80;;;;;;5051263;28;20171;-73
2022/03/27 12:22:40;;;;;;;4.40;2.45;;;20.00;51.60;;;;;;5051536;28;20171;-72
2022/03/27 12:25:07;;;;;;;4.70;2.55;;;20.00;51.60;;;;;;5051878;28;20185;-70
2022/03/27 12:30:41;;;;;;;6.63;2.90;;;20.10;51.60;;;;;;5051475;28;20306;-72
2022/03/27 12:33:06;;;;;;;4.85;2.60;;;20.10;51.60;;;;;;5051226;28;20179;-69
2022/03/27 12:35:35;;;;;;;7.60;2.50;;;20.10;51.60;;;;;;5049613;28;20177;-71
2022/03/27 12:38:00;;;;;;;5.43;2.83;;;20.10;51.60;;;;;;5051713;28;20175;-69
2022/03/27 12:40:26;;;;;;;5.78;2.20;;;20.10;51.60;;;;;;5051155;28;20329;-71
2022/03/27 12:42:53;;;;;;;4.32;2.47;;;20.20;51.60;;;;;;5051864;28;20185;-71
2022/03/27 12:45:36;;;;;;;4.70;2.28;;;20.20;51.70;;;;;;5051582;28;20486;-71
2022/03/27 12:48:16;;;;;;;2.83;1.73;;;20.20;51.60;;;;;;5050945;28;20178;-71
2022/03/27 12:50:43;;;;;;;4.82;2.50;;;20.20;51.70;;;;;;5051524;28;20650;-71
2022/03/27 12:53:18;;;;;;;3.15;2.35;;;20.30;51.80;;;;;;5051585;28;20178;-70
2022/03/27 12:55:46;;;;;;;4.20;2.38;;;20.20;51.80;;;;;;5051253;28;20174;-72
2022/03/27 12:58:13;;;;;;;3.53;2.17;;;20.30;51.80;;;;;;5051916;28;20170;-72
2022/03/27 13:00:40;;;;;;;2.95;2.00;;;20.40;51.80;;;;;;5050240;28;20231;-69
2022/03/27 13:03:14;;;;;;;4.18;2.17;;;20.40;51.70;;;;;;5049557;28;20175;-73